sensor_id;sensor_type;location;lat;lon;timestamp;temperature;humidity
60242;SHT30;46103;52.076;113.488;2023-05-16T00:00:04;5.01;35.24
60242;SHT30;46103;52.076;113.488;2023-05-16T00:03:10;5.20;35.06
60242;SHT30;46103;52.076;113.488;2023-05-16T00:06:15;5.46;33.67
60242;SHT30;46103;52.076;113.488;2023-05-16T00:09:19;5.67;34.51
60242;SHT30;46103;52.076;113.488;2023-05-16T00:12:23;5.84;33.50
60242;SHT30;46103;52.076;113.488;2023-05-16T00:15:29;5.94;33.31
60242;SHT30;46103;52.076;113.488;2023-05-16T00:18:32;6.21;32.44
60242;SHT30;46103;52.076;113.488;2023-05-16T00:21:39;6.22;32.86
60242;SHT30;46103;52.076;113.488;2023-05-16T00:24:42;6.47;32.42
60242;SHT30;46103;52.076;113.488;2023-05-16T00:27:46;6.70;32.30
60242;SHT30;46103;52.076;113.488;2023-05-16T00:30:49;6.83;31.09
60242;SHT30;46103;52.076;113.488;2023-05-16T00:33:54;6.92;31.51
60242;SHT30;46103;52.076;113.488;2023-05-16T00:36:59;7.15;31.31
60242;SHT30;46103;52.076;113.488;2023-05-16T00:40:30;7.42;30.32
60242;SHT30;46103;52.076;113.488;2023-05-16T00:43:37;7.46;29.75
60242;SHT30;46103;52.076;113.488;2023-05-16T00:46:42;7.49;29.49
60242;SHT30;46103;52.076;113.488;2023-05-16T00:49:46;7.71;29.36
60242;SHT30;46103;52.076;113.488;2023-05-16T00:52:50;7.88;28.97
60242;SHT30;46103;52.076;113.488;2023-05-16T00:55:55;7.94;28.56
60242;SHT30;46103;52.076;113.488;2023-05-16T00:59:00;7.94;28.80
60242;SHT30;46103;52.076;113.488;2023-05-16T01:02:03;8.16;28.47
60242;SHT30;46103;52.076;113.488;2023-05-16T01:05:18;8.12;28.00
60242;SHT30;46103;52.076;113.488;2023-05-16T01:08:22;8.19;27.96
60242;SHT30;46103;52.076;113.488;2023-05-16T01:11:32;8.36;27.76
60242;SHT30;46103;52.076;113.488;2023-05-16T01:15:07;8.42;27.28
60242;SHT30;46103;52.076;113.488;2023-05-16T01:19:06;8.71;26.86
60242;SHT30;46103;52.076;113.488;2023-05-16T01:22:29;8.80;26.20
60242;SHT30;46103;52.076;113.488;2023-05-16T01:26:36;9.04;25.85
60242;SHT30;46103;52.076;113.488;2023-05-16T01:29:20;9.29;26.32
60242;SHT30;46103;52.076;113.488;2023-05-16T01:32:26;9.38;25.74
60242;SHT30;46103;52.076;113.488;2023-05-16T01:35:32;9.31;25.25
60242;SHT30;46103;52.076;113.488;2023-05-16T01:38:38;9.45;24.89
60242;SHT30;46103;52.076;113.488;2023-05-16T01:42:08;9.69;24.55
60242;SHT30;46103;52.076;113.488;2023-05-16T01:45:19;9.73;24.49
60242;SHT30;46103;52.076;113.488;2023-05-16T01:48:31;9.98;24.45
60242;SHT30;46103;52.076;113.488;2023-05-16T01:51:38;10.19;23.90
60242;SHT30;46103;52.076;113.488;2023-05-16T01:54:46;10.41;23.80
60242;SHT30;46103;52.076;113.488;2023-05-16T01:57:51;10.59;23.29
60242;SHT30;46103;52.076;113.488;2023-05-16T02:01:03;10.63;22.69
60242;SHT30;46103;52.076;113.488;2023-05-16T02:04:06;10.89;22.78
60242;SHT30;46103;52.076;113.488;2023-05-16T02:07:12;11.10;22.28
60242;SHT30;46103;52.076;113.488;2023-05-16T02:10:19;11.28;22.50
60242;SHT30;46103;52.076;113.488;2023-05-16T02:13:26;11.36;21.73
60242;SHT30;46103;52.076;113.488;2023-05-16T02:16:37;11.43;22.01
60242;SHT30;46103;52.076;113.488;2023-05-16T02:19:42;11.68;21.29
60242;SHT30;46103;52.076;113.488;2023-05-16T02:22:47;11.89;21.34
60242;SHT30;46103;52.076;113.488;2023-05-16T02:25:54;11.94;20.58
60242;SHT30;46103;52.076;113.488;2023-05-16T02:29:02;12.20;20.10
60242;SHT30;46103;52.076;113.488;2023-05-16T02:32:09;12.44;19.95
60242;SHT30;46103;52.076;113.488;2023-05-16T02:35:16;12.71;19.71
60242;SHT30;46103;52.076;113.488;2023-05-16T02:38:24;12.83;19.55
60242;SHT30;46103;52.076;113.488;2023-05-16T02:41:29;13.03;19.50
60242;SHT30;46103;52.076;113.488;2023-05-16T02:44:35;13.21;19.36
60242;SHT30;46103;52.076;113.488;2023-05-16T02:47:38;13.11;18.84
60242;SHT30;46103;52.076;113.488;2023-05-16T02:50:42;12.90;19.12
60242;SHT30;46103;52.076;113.488;2023-05-16T02:53:46;13.00;18.95
60242;SHT30;46103;52.076;113.488;2023-05-16T02:56:50;12.90;19.24
60242;SHT30;46103;52.076;113.488;2023-05-16T02:59:53;13.21;19.27
60242;SHT30;46103;52.076;113.488;2023-05-16T03:02:56;13.28;18.92
60242;SHT30;46103;52.076;113.488;2023-05-16T03:06:01;13.58;19.07
60242;SHT30;46103;52.076;113.488;2023-05-16T03:09:06;13.74;19.00
60242;SHT30;46103;52.076;113.488;2023-05-16T03:12:11;13.87;18.71
60242;SHT30;46103;52.076;113.488;2023-05-16T03:15:14;14.03;18.86
60242;SHT30;46103;52.076;113.488;2023-05-16T03:18:18;14.09;18.49
60242;SHT30;46103;52.076;113.488;2023-05-16T03:21:23;14.01;17.98
60242;SHT30;46103;52.076;113.488;2023-05-16T03:24:28;13.87;17.90
60242;SHT30;46103;52.076;113.488;2023-05-16T03:27:32;13.95;18.32
60242;SHT30;46103;52.076;113.488;2023-05-16T03:30:38;13.85;17.75
60242;SHT30;46103;52.076;113.488;2023-05-16T03:33:42;13.66;18.22
60242;SHT30;46103;52.076;113.488;2023-05-16T03:36:49;13.75;18.18
60242;SHT30;46103;52.076;113.488;2023-05-16T03:39:53;13.89;18.20
60242;SHT30;46103;52.076;113.488;2023-05-16T03:42:57;13.87;18.02
60242;SHT30;46103;52.076;113.488;2023-05-16T03:46:06;13.68;17.82
60242;SHT30;46103;52.076;113.488;2023-05-16T03:49:10;13.61;17.73
60242;SHT30;46103;52.076;113.488;2023-05-16T03:52:14;13.51;18.14
60242;SHT30;46103;52.076;113.488;2023-05-16T03:55:20;13.51;17.38
60242;SHT30;46103;52.076;113.488;2023-05-16T03:58:49;13.75;17.41
60242;SHT30;46103;52.076;113.488;2023-05-16T04:01:53;14.01;16.91
60242;SHT30;46103;52.076;113.488;2023-05-16T04:05:10;14.01;17.07
60242;SHT30;46103;52.076;113.488;2023-05-16T04:08:30;14.16;16.97
60242;SHT30;46103;52.076;113.488;2023-05-16T04:11:48;14.16;16.94
60242;SHT30;46103;52.076;113.488;2023-05-16T04:14:52;14.10;16.39
60242;SHT30;46103;52.076;113.488;2023-05-16T04:17:56;14.08;16.82
60242;SHT30;46103;52.076;113.488;2023-05-16T04:20:59;14.45;16.24
60242;SHT30;46103;52.076;113.488;2023-05-16T04:24:03;14.33;16.45
60242;SHT30;46103;52.076;113.488;2023-05-16T04:27:07;14.47;16.18
60242;SHT30;46103;52.076;113.488;2023-05-16T04:30:12;14.58;16.38
60242;SHT30;46103;52.076;113.488;2023-05-16T04:33:17;14.69;15.69
60242;SHT30;46103;52.076;113.488;2023-05-16T04:36:21;14.63;16.01
60242;SHT30;46103;52.076;113.488;2023-05-16T04:39:26;14.56;15.86
60242;SHT30;46103;52.076;113.488;2023-05-16T04:42:30;14.75;15.88
60242;SHT30;46103;52.076;113.488;2023-05-16T04:45:34;14.65;16.12
60242;SHT30;46103;52.076;113.488;2023-05-16T04:48:39;14.75;15.97
60242;SHT30;46103;52.076;113.488;2023-05-16T04:51:44;14.75;15.79
60242;SHT30;46103;52.076;113.488;2023-05-16T04:54:51;14.74;15.69
60242;SHT30;46103;52.076;113.488;2023-05-16T04:57:55;14.77;15.43
60242;SHT30;46103;52.076;113.488;2023-05-16T05:00:59;14.82;15.03
60242;SHT30;46103;52.076;113.488;2023-05-16T05:04:03;14.88;14.81
60242;SHT30;46103;52.076;113.488;2023-05-16T05:07:07;14.79;14.72
60242;SHT30;46103;52.076;113.488;2023-05-16T05:10:11;14.84;15.06
60242;SHT30;46103;52.076;113.488;2023-05-16T05:13:15;14.91;15.23
60242;SHT30;46103;52.076;113.488;2023-05-16T05:16:19;15.10;14.87
60242;SHT30;46103;52.076;113.488;2023-05-16T05:19:24;15.05;14.42
60242;SHT30;46103;52.076;113.488;2023-05-16T05:22:28;14.98;14.80
60242;SHT30;46103;52.076;113.488;2023-05-16T05:25:34;15.06;15.16
60242;SHT30;46103;52.076;113.488;2023-05-16T05:28:39;15.03;14.98
60242;SHT30;46103;52.076;113.488;2023-05-16T05:31:52;15.02;15.01
60242;SHT30;46103;52.076;113.488;2023-05-16T05:34:58;15.15;14.76
60242;SHT30;46103;52.076;113.488;2023-05-16T05:38:02;15.19;14.88
60242;SHT30;46103;52.076;113.488;2023-05-16T05:41:06;15.27;14.89
60242;SHT30;46103;52.076;113.488;2023-05-16T05:44:11;15.40;14.25
60242;SHT30;46103;52.076;113.488;2023-05-16T05:47:15;15.46;14.48
60242;SHT30;46103;52.076;113.488;2023-05-16T05:50:18;15.67;14.84
60242;SHT30;46103;52.076;113.488;2023-05-16T05:53:23;15.70;14.71
60242;SHT30;46103;52.076;113.488;2023-05-16T05:56:27;15.78;14.79
60242;SHT30;46103;52.076;113.488;2023-05-16T05:59:31;15.82;14.76
60242;SHT30;46103;52.076;113.488;2023-05-16T06:02:35;15.75;14.94
60242;SHT30;46103;52.076;113.488;2023-05-16T06:05:40;15.88;14.63
60242;SHT30;46103;52.076;113.488;2023-05-16T06:08:44;15.99;14.80
60242;SHT30;46103;52.076;113.488;2023-05-16T06:11:49;16.15;14.70
60242;SHT30;46103;52.076;113.488;2023-05-16T06:14:54;16.33;14.97
60242;SHT30;46103;52.076;113.488;2023-05-16T06:17:58;16.25;14.45
60242;SHT30;46103;52.076;113.488;2023-05-16T06:21:04;16.56;14.64
60242;SHT30;46103;52.076;113.488;2023-05-16T06:24:09;16.84;14.56
60242;SHT30;46103;52.076;113.488;2023-05-16T06:27:16;17.02;14.82
60242;SHT30;46103;52.076;113.488;2023-05-16T06:30:22;17.21;14.53
60242;SHT30;46103;52.076;113.488;2023-05-16T06:33:26;17.22;15.02
60242;SHT30;46103;52.076;113.488;2023-05-16T06:36:30;17.60;14.41
60242;SHT30;46103;52.076;113.488;2023-05-16T06:39:35;17.87;14.36
60242;SHT30;46103;52.076;113.488;2023-05-16T06:42:40;17.97;14.37
60242;SHT30;46103;52.076;113.488;2023-05-16T06:45:46;18.51;14.04
60242;SHT30;46103;52.076;113.488;2023-05-16T06:48:51;18.87;13.95
60242;SHT30;46103;52.076;113.488;2023-05-16T06:51:55;19.36;13.71
60242;SHT30;46103;52.076;113.488;2023-05-16T06:54:59;20.00;13.20
60242;SHT30;46103;52.076;113.488;2023-05-16T06:58:03;19.84;13.31
60242;SHT30;46103;52.076;113.488;2023-05-16T07:01:08;20.47;13.36
60242;SHT30;46103;52.076;113.488;2023-05-16T07:04:12;21.31;12.87
60242;SHT30;46103;52.076;113.488;2023-05-16T07:07:19;21.24;12.89
60242;SHT30;46103;52.076;113.488;2023-05-16T07:10:24;20.69;13.25
60242;SHT30;46103;52.076;113.488;2023-05-16T07:13:31;21.19;12.82
60242;SHT30;46103;52.076;113.488;2023-05-16T07:16:38;21.23;12.97
60242;SHT30;46103;52.076;113.488;2023-05-16T07:19:45;20.90;13.14
60242;SHT30;46103;52.076;113.488;2023-05-16T07:22:50;21.72;12.96
60242;SHT30;46103;52.076;113.488;2023-05-16T07:25:58;22.27;12.49
60242;SHT30;46103;52.076;113.488;2023-05-16T07:29:05;23.11;12.19
60242;SHT30;46103;52.076;113.488;2023-05-16T07:32:12;23.05;12.07
60242;SHT30;46103;52.076;113.488;2023-05-16T07:35:19;22.39;12.59
60242;SHT30;46103;52.076;113.488;2023-05-16T07:38:26;22.53;12.47
60242;SHT30;46103;52.076;113.488;2023-05-16T07:41:32;23.19;12.36
60242;SHT30;46103;52.076;113.488;2023-05-16T07:44:38;24.14;11.60
60242;SHT30;46103;52.076;113.488;2023-05-16T07:47:46;23.61;11.83
60242;SHT30;46103;52.076;113.488;2023-05-16T07:50:55;23.09;12.00
60242;SHT30;46103;52.076;113.488;2023-05-16T07:54:01;22.29;12.42
60242;SHT30;46103;52.076;113.488;2023-05-16T07:57:08;20.14;13.67
60242;SHT30;46103;52.076;113.488;2023-05-16T08:00:18;21.72;12.72
60242;SHT30;46103;52.076;113.488;2023-05-16T08:03:30;22.63;12.52
60242;SHT30;46103;52.076;113.488;2023-05-16T08:06:38;23.40;12.03
60242;SHT30;46103;52.076;113.488;2023-05-16T08:09:45;23.79;11.89
60242;SHT30;46103;52.076;113.488;2023-05-16T08:12:53;24.56;11.62
60242;SHT30;46103;52.076;113.488;2023-05-16T08:16:00;24.77;11.78
60242;SHT30;46103;52.076;113.488;2023-05-16T08:19:06;23.01;12.25
60242;SHT30;46103;52.076;113.488;2023-05-16T08:22:15;21.19;13.15
60242;SHT30;46103;52.076;113.488;2023-05-16T08:25:23;20.03;13.75
60242;SHT30;46103;52.076;113.488;2023-05-16T08:28:30;20.27;13.90
60242;SHT30;46103;52.076;113.488;2023-05-16T08:31:39;19.84;14.17
60242;SHT30;46103;52.076;113.488;2023-05-16T08:34:47;19.59;14.29
60242;SHT30;46103;52.076;113.488;2023-05-16T08:37:54;19.98;14.23
60242;SHT30;46103;52.076;113.488;2023-05-16T08:40:59;19.87;14.16
60242;SHT30;46103;52.076;113.488;2023-05-16T08:44:05;22.17;13.08
60242;SHT30;46103;52.076;113.488;2023-05-16T08:47:19;24.40;12.19
60242;SHT30;46103;52.076;113.488;2023-05-16T08:50:25;25.45;11.77
60242;SHT30;46103;52.076;113.488;2023-05-16T08:53:38;22.82;12.72
60242;SHT30;46103;52.076;113.488;2023-05-16T08:56:44;21.33;13.40
60242;SHT30;46103;52.076;113.488;2023-05-16T08:59:48;21.63;13.63
60242;SHT30;46103;52.076;113.488;2023-05-16T09:02:53;24.02;12.28
60242;SHT30;46103;52.076;113.488;2023-05-16T09:05:58;22.32;13.01
60242;SHT30;46103;52.076;113.488;2023-05-16T09:09:03;22.84;12.71
60242;SHT30;46103;52.076;113.488;2023-05-16T09:12:10;22.81;12.62
60242;SHT30;46103;52.076;113.488;2023-05-16T09:15:17;21.35;13.09
60242;SHT30;46103;52.076;113.488;2023-05-16T09:18:21;20.42;13.77
60242;SHT30;46103;52.076;113.488;2023-05-16T09:21:30;19.63;14.22
60242;SHT30;46103;52.076;113.488;2023-05-16T09:24:44;19.00;14.43
60242;SHT30;46103;52.076;113.488;2023-05-16T09:27:52;18.64;14.99
60242;SHT30;46103;52.076;113.488;2023-05-16T09:30:55;18.29;15.02
60242;SHT30;46103;52.076;113.488;2023-05-16T09:34:03;18.36;15.16
60242;SHT30;46103;52.076;113.488;2023-05-16T09:37:09;20.55;14.10
60242;SHT30;46103;52.076;113.488;2023-05-16T09:40:14;21.95;13.15
60242;SHT30;46103;52.076;113.488;2023-05-16T09:43:22;23.29;12.66
60242;SHT30;46103;52.076;113.488;2023-05-16T09:46:26;24.86;12.09
60242;SHT30;46103;52.076;113.488;2023-05-16T09:49:30;25.97;11.27
60242;SHT30;46103;52.076;113.488;2023-05-16T09:52:36;26.05;11.18
60242;SHT30;46103;52.076;113.488;2023-05-16T09:55:40;26.68;11.05
60242;SHT30;46103;52.076;113.488;2023-05-16T09:58:44;24.69;11.73
60242;SHT30;46103;52.076;113.488;2023-05-16T10:01:52;24.78;11.94
60242;SHT30;46103;52.076;113.488;2023-05-16T10:04:57;22.48;12.65
60242;SHT30;46103;52.076;113.488;2023-05-16T10:08:02;22.21;12.81
60242;SHT30;46103;52.076;113.488;2023-05-16T10:11:07;24.32;11.94
60242;SHT30;46103;52.076;113.488;2023-05-16T10:14:11;25.39;11.60
60242;SHT30;46103;52.076;113.488;2023-05-16T10:17:17;25.93;11.22
60242;SHT30;46103;52.076;113.488;2023-05-16T10:20:21;25.94;11.16
60242;SHT30;46103;52.076;113.488;2023-05-16T10:23:25;24.73;11.66
60242;SHT30;46103;52.076;113.488;2023-05-16T10:26:29;23.70;12.01
60242;SHT30;46103;52.076;113.488;2023-05-16T10:29:36;23.64;12.16
60242;SHT30;46103;52.076;113.488;2023-05-16T10:32:55;23.94;12.11
60242;SHT30;46103;52.076;113.488;2023-05-16T10:36:00;24.19;11.90
60242;SHT30;46103;52.076;113.488;2023-05-16T10:39:08;24.53;11.81
60242;SHT30;46103;52.076;113.488;2023-05-16T10:42:13;24.48;11.75
60242;SHT30;46103;52.076;113.488;2023-05-16T10:45:20;24.88;11.75
60242;SHT30;46103;52.076;113.488;2023-05-16T10:48:34;25.67;11.53
60242;SHT30;46103;52.076;113.488;2023-05-16T10:52:11;24.98;11.88
60242;SHT30;46103;52.076;113.488;2023-05-16T10:55:16;24.97;11.97
60242;SHT30;46103;52.076;113.488;2023-05-16T11:01:43;25.21;11.98
60242;SHT30;46103;52.076;113.488;2023-05-16T11:04:51;25.05;12.05
60242;SHT30;46103;52.076;113.488;2023-05-16T11:08:02;24.67;12.13
60242;SHT30;46103;52.076;113.488;2023-05-16T11:11:41;24.12;12.30
60242;SHT30;46103;52.076;113.488;2023-05-16T11:14:51;24.08;12.33
60242;SHT30;46103;52.076;113.488;2023-05-16T11:18:07;23.93;12.57
60242;SHT30;46103;52.076;113.488;2023-05-16T11:21:12;23.63;13.01
60242;SHT30;46103;52.076;113.488;2023-05-16T11:24:31;23.19;13.29
60242;SHT30;46103;52.076;113.488;2023-05-16T11:30:53;22.29;13.73
60242;SHT30;46103;52.076;113.488;2023-05-16T11:34:00;22.19;13.94
60242;SHT30;46103;52.076;113.488;2023-05-16T11:37:09;21.55;14.36
60242;SHT30;46103;52.076;113.488;2023-05-16T11:40:17;20.80;15.30
60242;SHT30;46103;52.076;113.488;2023-05-16T11:43:21;20.25;15.95
60242;SHT30;46103;52.076;113.488;2023-05-16T11:46:26;19.28;16.83
60242;SHT30;46103;52.076;113.488;2023-05-16T11:49:30;18.80;17.23
60242;SHT30;46103;52.076;113.488;2023-05-16T11:52:33;18.39;17.75
60242;SHT30;46103;52.076;113.488;2023-05-16T11:55:40;18.02;17.84
60242;SHT30;46103;52.076;113.488;2023-05-16T11:58:44;17.86;17.76
60242;SHT30;46103;52.076;113.488;2023-05-16T12:02:03;17.04;18.45
60242;SHT30;46103;52.076;113.488;2023-05-16T12:05:08;16.05;19.01
60242;SHT30;46103;52.076;113.488;2023-05-16T12:08:15;15.23;19.71
60242;SHT30;46103;52.076;113.488;2023-05-16T12:11:18;14.82;20.21
60242;SHT30;46103;52.076;113.488;2023-05-16T12:14:24;14.42;20.43
60242;SHT30;46103;52.076;113.488;2023-05-16T12:17:27;14.03;20.78
60242;SHT30;46103;52.076;113.488;2023-05-16T12:20:31;13.78;20.91
60242;SHT30;46103;52.076;113.488;2023-05-16T12:23:35;13.59;21.24
60242;SHT30;46103;52.076;113.488;2023-05-16T12:26:39;13.34;21.63
60242;SHT30;46103;52.076;113.488;2023-05-16T12:29:49;13.09;22.12
60242;SHT30;46103;52.076;113.488;2023-05-16T12:32:55;12.82;22.39
60242;SHT30;46103;52.076;113.488;2023-05-16T12:36:00;12.62;22.69
60242;SHT30;46103;52.076;113.488;2023-05-16T12:39:04;12.49;22.79
60242;SHT30;46103;52.076;113.488;2023-05-16T12:42:11;12.35;22.80
60242;SHT30;46103;52.076;113.488;2023-05-16T12:45:18;12.25;22.89
60242;SHT30;46103;52.076;113.488;2023-05-16T12:48:23;12.14;22.96
60242;SHT30;46103;52.076;113.488;2023-05-16T12:51:34;11.97;23.29
60242;SHT30;46103;52.076;113.488;2023-05-16T12:55:04;11.82;23.69
60242;SHT30;46103;52.076;113.488;2023-05-16T12:59:00;11.65;24.02
60242;SHT30;46103;52.076;113.488;2023-05-16T13:02:05;11.51;24.37
60242;SHT30;46103;52.076;113.488;2023-05-16T13:05:10;11.39;24.74
60242;SHT30;46103;52.076;113.488;2023-05-16T13:08:14;11.20;25.09
60242;SHT30;46103;52.076;113.488;2023-05-16T13:11:17;11.13;25.41
60242;SHT30;46103;52.076;113.488;2023-05-16T13:14:21;11.03;25.66
60242;SHT30;46103;52.076;113.488;2023-05-16T13:17:30;10.94;25.83
60242;SHT30;46103;52.076;113.488;2023-05-16T13:20:34;10.83;26.09
60242;SHT30;46103;52.076;113.488;2023-05-16T13:23:37;10.79;26.22
60242;SHT30;46103;52.076;113.488;2023-05-16T13:26:41;10.72;26.40
60242;SHT30;46103;52.076;113.488;2023-05-16T13:29:45;10.60;26.53
60242;SHT30;46103;52.076;113.488;2023-05-16T13:32:51;10.53;26.64
60242;SHT30;46103;52.076;113.488;2023-05-16T13:35:55;10.46;26.80
60242;SHT30;46103;52.076;113.488;2023-05-16T13:38:58;10.35;26.88
60242;SHT30;46103;52.076;113.488;2023-05-16T13:42:05;10.29;26.94
60242;SHT30;46103;52.076;113.488;2023-05-16T13:45:08;10.21;27.03
60242;SHT30;46103;52.076;113.488;2023-05-16T13:48:11;10.17;26.95
60242;SHT30;46103;52.076;113.488;2023-05-16T13:51:16;10.15;26.96
60242;SHT30;46103;52.076;113.488;2023-05-16T13:54:19;10.12;26.92
60242;SHT30;46103;52.076;113.488;2023-05-16T13:57:24;10.15;27.00
60242;SHT30;46103;52.076;113.488;2023-05-16T14:00:29;10.12;26.82
60242;SHT30;46103;52.076;113.488;2023-05-16T14:03:47;10.07;26.89
60242;SHT30;46103;52.076;113.488;2023-05-16T14:06:51;10.07;27.08
60242;SHT30;46103;52.076;113.488;2023-05-16T14:09:54;10.05;27.27
60242;SHT30;46103;52.076;113.488;2023-05-16T14:12:58;10.02;27.21
60242;SHT30;46103;52.076;113.488;2023-05-16T14:16:02;9.98;27.20
60242;SHT30;46103;52.076;113.488;2023-05-16T14:19:06;9.95;27.20
60242;SHT30;46103;52.076;113.488;2023-05-16T14:22:10;9.89;27.38
60242;SHT30;46103;52.076;113.488;2023-05-16T14:25:14;9.81;27.47
60242;SHT30;46103;52.076;113.488;2023-05-16T14:28:18;9.77;27.62
60242;SHT30;46103;52.076;113.488;2023-05-16T14:31:22;9.72;27.60
60242;SHT30;46103;52.076;113.488;2023-05-16T14:34:25;9.72;27.62
60242;SHT30;46103;52.076;113.488;2023-05-16T14:37:29;9.69;27.59
60242;SHT30;46103;52.076;113.488;2023-05-16T14:40:33;9.63;27.77
60242;SHT30;46103;52.076;113.488;2023-05-16T14:43:37;9.59;27.97
60242;SHT30;46103;52.076;113.488;2023-05-16T14:46:41;9.54;27.90
60242;SHT30;46103;52.076;113.488;2023-05-16T14:49:45;9.50;28.02
60242;SHT30;46103;52.076;113.488;2023-05-16T14:52:49;9.43;28.07
60242;SHT30;46103;52.076;113.488;2023-05-16T14:55:53;9.43;28.10
60242;SHT30;46103;52.076;113.488;2023-05-16T14:58:56;9.40;28.22
60242;SHT30;46103;52.076;113.488;2023-05-16T15:01:59;9.36;28.12
60242;SHT30;46103;52.076;113.488;2023-05-16T15:05:03;9.34;28.24
60242;SHT30;46103;52.076;113.488;2023-05-16T15:08:06;9.28;28.34
60242;SHT30;46103;52.076;113.488;2023-05-16T15:11:11;9.24;28.48
60242;SHT30;46103;52.076;113.488;2023-05-16T15:14:14;9.19;28.56
60242;SHT30;46103;52.076;113.488;2023-05-16T15:17:18;9.18;28.37
60242;SHT30;46103;52.076;113.488;2023-05-16T15:20:22;9.12;28.63
60242;SHT30;46103;52.076;113.488;2023-05-16T15:23:28;9.11;28.64
60242;SHT30;46103;52.076;113.488;2023-05-16T15:26:32;9.04;28.70
60242;SHT30;46103;52.076;113.488;2023-05-16T15:29:35;9.04;28.58
60242;SHT30;46103;52.076;113.488;2023-05-16T15:32:39;8.98;28.63
60242;SHT30;46103;52.076;113.488;2023-05-16T15:35:43;8.97;28.70
60242;SHT30;46103;52.076;113.488;2023-05-16T15:38:47;8.92;28.61
60242;SHT30;46103;52.076;113.488;2023-05-16T15:41:52;8.94;28.64
60242;SHT30;46103;52.076;113.488;2023-05-16T15:44:58;8.88;28.68
60242;SHT30;46103;52.076;113.488;2023-05-16T15:48:02;8.87;28.75
60242;SHT30;46103;52.076;113.488;2023-05-16T15:51:05;8.91;28.26
60242;SHT30;46103;52.076;113.488;2023-05-16T15:54:09;8.94;28.48
60242;SHT30;46103;52.076;113.488;2023-05-16T15:57:13;8.96;27.91
60242;SHT30;46103;52.076;113.488;2023-05-16T16:00:17;9.01;27.96
60242;SHT30;46103;52.076;113.488;2023-05-16T16:03:21;9.12;27.71
60242;SHT30;46103;52.076;113.488;2023-05-16T16:06:24;9.00;28.14
60242;SHT30;46103;52.076;113.488;2023-05-16T16:09:28;8.96;28.09
60242;SHT30;46103;52.076;113.488;2023-05-16T16:12:32;8.96;28.00
60242;SHT30;46103;52.076;113.488;2023-05-16T16:15:35;8.98;27.85
60242;SHT30;46103;52.076;113.488;2023-05-16T16:18:38;9.00;27.82
60242;SHT30;46103;52.076;113.488;2023-05-16T16:21:42;8.97;27.93
60242;SHT30;46103;52.076;113.488;2023-05-16T16:24:45;8.91;28.13
60242;SHT30;46103;52.076;113.488;2023-05-16T16:27:48;8.81;28.35
60242;SHT30;46103;52.076;113.488;2023-05-16T16:30:53;8.76;28.37
60242;SHT30;46103;52.076;113.488;2023-05-16T16:33:57;8.76;28.14
60242;SHT30;46103;52.076;113.488;2023-05-16T16:37:00;8.83;28.13
60242;SHT30;46103;52.076;113.488;2023-05-16T16:40:06;8.76;28.44
60242;SHT30;46103;52.076;113.488;2023-05-16T16:43:11;8.64;28.63
60242;SHT30;46103;52.076;113.488;2023-05-16T16:46:14;8.54;28.77
60242;SHT30;46103;52.076;113.488;2023-05-16T16:49:17;8.43;29.21
60242;SHT30;46103;52.076;113.488;2023-05-16T16:52:21;8.31;29.37
60242;SHT30;46103;52.076;113.488;2023-05-16T16:55:25;8.21;29.65
60242;SHT30;46103;52.076;113.488;2023-05-16T16:58:30;8.15;29.45
60242;SHT30;46103;52.076;113.488;2023-05-16T17:01:34;8.13;29.73
60242;SHT30;46103;52.076;113.488;2023-05-16T17:04:38;8.02;29.69
60242;SHT30;46103;52.076;113.488;2023-05-16T17:07:42;7.98;29.99
60242;SHT30;46103;52.076;113.488;2023-05-16T17:10:45;7.88;30.08
60242;SHT30;46103;52.076;113.488;2023-05-16T17:13:49;7.81;30.21
60242;SHT30;46103;52.076;113.488;2023-05-16T17:16:52;7.71;30.20
60242;SHT30;46103;52.076;113.488;2023-05-16T17:19:56;7.66;30.57
60242;SHT30;46103;52.076;113.488;2023-05-16T17:23:00;7.60;30.54
60242;SHT30;46103;52.076;113.488;2023-05-16T17:26:04;7.46;31.04
60242;SHT30;46103;52.076;113.488;2023-05-16T17:29:08;7.42;31.11
60242;SHT30;46103;52.076;113.488;2023-05-16T17:32:11;7.33;30.85
60242;SHT30;46103;52.076;113.488;2023-05-16T17:35:14;7.37;30.82
60242;SHT30;46103;52.076;113.488;2023-05-16T17:38:18;7.39;30.88
60242;SHT30;46103;52.076;113.488;2023-05-16T17:41:21;7.32;31.01
60242;SHT30;46103;52.076;113.488;2023-05-16T17:44:26;7.30;31.00
60242;SHT30;46103;52.076;113.488;2023-05-16T17:47:29;7.20;31.27
60242;SHT30;46103;52.076;113.488;2023-05-16T17:50:34;7.12;31.86
60242;SHT30;46103;52.076;113.488;2023-05-16T17:53:37;7.09;31.91
60242;SHT30;46103;52.076;113.488;2023-05-16T17:56:41;6.94;32.18
60242;SHT30;46103;52.076;113.488;2023-05-16T17:59:45;6.88;32.49
60242;SHT30;46103;52.076;113.488;2023-05-16T18:02:48;6.76;32.78
60242;SHT30;46103;52.076;113.488;2023-05-16T18:05:52;6.64;32.93
60242;SHT30;46103;52.076;113.488;2023-05-16T18:08:56;6.56;33.15
60242;SHT30;46103;52.076;113.488;2023-05-16T18:11:59;6.53;35.17
60242;SHT30;46103;52.076;113.488;2023-05-16T18:15:04;6.44;35.55
60242;SHT30;46103;52.076;113.488;2023-05-16T18:18:07;6.33;35.93
60242;SHT30;46103;52.076;113.488;2023-05-16T18:21:12;6.26;35.07
60242;SHT30;46103;52.076;113.488;2023-05-16T18:24:15;6.21;34.71
60242;SHT30;46103;52.076;113.488;2023-05-16T18:27:19;6.19;35.75
60242;SHT30;46103;52.076;113.488;2023-05-16T18:30:22;6.18;37.24
60242;SHT30;46103;52.076;113.488;2023-05-16T18:33:26;6.16;37.12
60242;SHT30;46103;52.076;113.488;2023-05-16T18:36:30;6.13;37.45
60242;SHT30;46103;52.076;113.488;2023-05-16T18:39:34;6.13;36.50
60242;SHT30;46103;52.076;113.488;2023-05-16T18:42:38;6.11;36.50
60242;SHT30;46103;52.076;113.488;2023-05-16T18:45:42;6.08;36.43
60242;SHT30;46103;52.076;113.488;2023-05-16T18:48:46;6.06;36.51
60242;SHT30;46103;52.076;113.488;2023-05-16T18:51:50;5.99;37.10
60242;SHT30;46103;52.076;113.488;2023-05-16T18:54:54;6.01;37.17
60242;SHT30;46103;52.076;113.488;2023-05-16T18:57:59;5.98;37.20
60242;SHT30;46103;52.076;113.488;2023-05-16T19:01:03;5.94;37.22
60242;SHT30;46103;52.076;113.488;2023-05-16T19:04:07;5.93;36.98
60242;SHT30;46103;52.076;113.488;2023-05-16T19:07:11;5.88;37.10
60242;SHT30;46103;52.076;113.488;2023-05-16T19:10:15;5.85;37.05
60242;SHT30;46103;52.076;113.488;2023-05-16T19:13:18;5.81;37.56